Time;durP1;ratioP1;P1;durP2;ratioP2;P2;SDS_P1;SDS_P2;PMS_P1;PMS_P2;Temp;Humidity;BMP_temperature;BMP_pressure;BME280_temperature;BME280_humidity;BME280_pressure;Samples;Min_cycle;Max_cycle;Signal;HPM_P1;HPM_P2
2022/02/09 00:01:43;;;;;;;8.63;4.53;;;205.10;2252.80;;;;;;5069571;28;20103;-72
2022/02/09 00:04:30;;;;;;;9.38;3.85;;;205.10;2252.80;;;;;;5069739;28;20034;-73
2022/02/09 00:09:23;;;;;;;5.53;3.85;;;205.20;2252.80;;;;;;5071039;28;20158;-72
2022/02/09 00:14:35;;;;;;;7.80;4.50;;;205.30;2252.80;;;;;;5071864;28;20039;-71
2022/02/09 00:36:15;;;;;;;6.22;3.80;;;205.40;2252.80;;;;;;5029448;28;20523;-72
2022/02/09 01:37:55;;;;;;;9.63;5.60;;;179.50;2252.80;;;;;;5070544;28;20036;-71
2022/02/09 01:57:16;;;;;;;9.63;5.35;;;154.50;2252.80;;;;;;5052593;28;20037;-70
2022/02/09 01:59:45;;;;;;;11.73;6.22;;;154.50;2252.80;;;;;;5070288;28;20024;-71
2022/02/09 02:02:11;;;;;;;9.45;5.72;;;154.50;2252.80;;;;;;5070301;28;20028;-71
2022/02/09 02:04:38;;;;;;;15.38;7.10;;;154.50;2252.80;;;;;;5064860;28;20043;-71
2022/02/09 02:07:10;;;;;;;12.82;5.88;;;154.50;2252.80;;;;;;5069225;28;20090;-71
2022/02/09 02:09:37;;;;;;;11.48;7.13;;;154.50;2252.80;;;;;;5068616;28;20063;-71
2022/02/09 02:12:12;;;;;;;21.60;8.77;;;154.50;2252.80;;;;;;5069025;28;20029;-70
2022/02/09 02:14:56;;;;;;;11.95;6.90;;;154.50;2252.80;;;;;;5069997;28;20387;-70
2022/02/09 02:17:37;;;;;;;14.60;7.82;;;179.20;2252.80;;;;;;5069505;28;20017;-70
2022/02/09 02:20:14;;;;;;;12.68;6.88;;;179.20;2252.80;;;;;;5068545;28;20048;-70
2022/02/09 02:23:06;;;;;;;16.92;8.70;;;179.30;2252.80;;;;;;5069639;28;20475;-69
2022/02/09 03:13:34;;;;;;;11.07;7.30;;;179.50;2252.80;;;;;;5030505;28;20419;-70
2022/02/09 03:16:11;;;;;;;9.45;5.63;;;179.40;2252.80;;;;;;5054007;28;20024;-70
2022/02/09 03:24:02;;;;;;;11.57;6.40;;;179.50;2252.80;;;;;;5072314;28;20024;-70
2022/02/09 03:50:37;;;;;;;9.50;5.90;;;179.30;2252.80;;;;;;5065153;28;20017;-70
2022/02/09 03:58:30;;;;;;;8.90;4.63;;;179.30;2252.80;;;;;;5071230;28;20486;-70
2022/02/09 04:00:56;;;;;;;7.88;4.68;;;179.30;2252.80;;;;;;5071617;28;20032;-71
2022/02/09 04:03:23;;;;;;;8.15;5.15;;;179.30;2252.80;;;;;;5070778;28;20051;-70
2022/02/09 04:05:50;;;;;;;7.55;4.47;;;179.30;2252.80;;;;;;5071716;28;20025;-71
2022/02/09 04:08:18;;;;;;;14.35;4.90;;;179.30;2252.80;;;;;;5072444;28;20082;-71
2022/02/09 04:10:58;;;;;;;9.88;4.97;;;179.30;2252.80;;;;;;5072119;28;20421;-70
2022/02/09 04:13:34;;;;;;;13.18;5.55;;;179.30;2252.80;;;;;;5071809;28;20028;-70
2022/02/09 04:16:11;;;;;;;11.63;5.47;;;179.30;2252.80;;;;;;5071236;28;20056;-71
2022/02/09 04:38:12;;;;;;;8.15;4.68;;;179.40;2252.80;;;;;;5049193;28;20027;-70
2022/02/09 04:43:30;;;;;;;10.38;5.35;;;179.40;2252.80;;;;;;5043370;28;20098;-71
2022/02/09 04:51:17;;;;;;;13.63;6.18;;;179.50;2252.80;;;;;;5049135;28;20062;-71
2022/02/09 05:24:00;;;;;;;38.08;17.10;;;179.40;2252.80;;;;;;4995700;28;20044;-71
2022/02/09 05:26:37;;;;;;;36.50;17.48;;;179.40;2252.80;;;;;;4994908;28;20053;-71
2022/02/09 05:29:03;;;;;;;19.20;11.48;;;179.30;2252.80;;;;;;4987033;28;20620;-70
2022/02/09 05:31:28;;;;;;;19.10;9.48;;;179.40;2252.80;;;;;;4995535;28;20113;-70
2022/02/09 05:33:54;;;;;;;23.08;10.55;;;179.40;2252.80;;;;;;5000339;28;20038;-71
2022/02/09 05:36:20;;;;;;;15.95;9.48;;;179.40;2252.80;;;;;;5008763;28;20075;-71
2022/02/09 05:38:46;;;;;;;27.08;11.93;;;179.40;2252.80;;;;;;5006770;28;20079;-71
2022/02/09 05:41:12;;;;;;;27.63;13.80;;;179.40;2252.80;;;;;;4999671;28;20461;-71
2022/02/09 05:43:38;;;;;;;14.10;8.57;;;179.50;2252.80;;;;;;5017662;28;20038;-71
2022/02/09 05:56:34;;;;;;;27.65;15.07;;;179.60;2252.80;;;;;;5069973;28;20039;-71
2022/02/09 06:01:36;;;;;;;36.15;15.60;;;179.70;2252.80;;;;;;5064351;28;20055;-71
2022/02/09 06:04:02;;;;;;;25.25;12.95;;;179.70;2252.80;;;;;;5069809;28;20032;-70
2022/02/09 06:06:28;;;;;;;29.70;14.40;;;179.70;2252.80;;;;;;5071667;28;20032;-70
2022/02/09 06:08:53;;;;;;;22.83;13.20;;;179.70;2252.80;;;;;;5073842;28;20024;-70
2022/02/09 06:11:30;;;;;;;25.27;15.55;;;179.70;2252.80;;;;;;5072691;28;20044;-71
2022/02/09 06:14:14;;;;;;;;;;;179.70;2252.80;;;;;;5074128;28;20023;-71
2022/02/09 06:22:01;;;;;;;23.60;12.45;;;179.70;2252.80;;;;;;5068405;28;20063;-70
2022/02/09 06:24:27;;;;;;;30.77;15.68;;;179.70;2252.80;;;;;;5071669;28;20151;-71
2022/02/09 06:26:53;;;;;;;24.00;13.98;;;179.70;2252.80;;;;;;5073962;28;20515;-70
2022/02/09 06:29:19;;;;;;;20.13;11.30;;;179.70;2252.80;;;;;;5072111;28;20071;-70
2022/02/09 06:31:46;;;;;;;30.55;12.95;;;179.70;2252.80;;;;;;5072995;28;20033;-71
2022/02/09 06:34:14;;;;;;;22.38;12.60;;;179.70;2252.80;;;;;;5071584;28;20566;-70
2022/02/09 06:36:44;;;;;;;20.67;10.13;;;179.80;2252.80;;;;;;5072179;28;20047;-71
2022/02/09 06:39:12;;;;;;;25.05;14.02;;;179.70;2252.80;;;;;;5073529;28;20017;-71
2022/02/09 06:41:39;;;;;;;17.77;11.07;;;179.80;2252.80;;;;;;5073027;28;20021;-71
2022/02/09 06:44:05;;;;;;;25.65;13.70;;;179.80;2252.80;;;;;;5071682;28;20043;-70
2022/02/09 06:46:36;;;;;;;22.88;12.45;;;179.80;2252.80;;;;;;5072616;28;20028;-70
2022/02/09 06:49:05;;;;;;;20.35;12.10;;;179.80;2252.80;;;;;;5073608;28;20047;-70
2022/02/09 06:51:37;;;;;;;22.80;10.93;;;179.80;2252.80;;;;;;5071790;28;20028;-73
2022/02/09 06:54:17;;;;;;;20.98;10.38;;;179.70;2252.80;;;;;;5072947;28;20463;-71
2022/02/09 06:59:41;;;;;;;25.52;12.25;;;179.60;2252.80;;;;;;5072934;28;20070;-71
2022/02/09 07:02:08;;;;;;;21.48;11.25;;;179.50;2252.80;;;;;;5069054;28;20029;-71
2022/02/09 07:04:36;;;;;;;14.27;8.40;;;179.40;2252.80;;;;;;5073286;28;20033;-71
2022/02/09 07:07:03;;;;;;;20.98;10.43;;;179.50;2252.80;;;;;;5072139;28;20054;-70
2022/02/09 07:09:29;;;;;;;17.90;10.00;;;179.50;2252.80;;;;;;5072953;28;20032;-71
2022/02/09 07:11:55;;;;;;;18.13;10.02;;;179.50;2252.80;;;;;;5071349;28;20025;-71
2022/02/09 07:14:25;;;;;;;17.02;8.43;;;179.60;2252.80;;;;;;5072876;28;20017;-71
2022/02/09 07:16:52;;;;;;;12.43;8.07;;;179.60;2252.80;;;;;;5072406;28;20095;-71
2022/02/09 07:19:18;;;;;;;14.57;9.80;;;179.70;2252.80;;;;;;5071763;28;20498;-71
2022/02/09 07:21:44;;;;;;;13.00;9.60;;;179.70;2252.80;;;;;;5073268;28;20028;-71
2022/02/09 07:24:14;;;;;;;15.30;9.32;;;179.80;2252.80;;;;;;5072059;28;20035;-71
2022/02/09 07:26:48;;;;;;;14.43;9.05;;;179.80;2252.80;;;;;;5073159;28;20494;-71
2022/02/09 07:29:18;;;;;;;15.50;10.02;;;179.80;2252.80;;;;;;5072671;28;20028;-71
2022/02/09 07:31:44;;;;;;;15.25;9.98;;;179.90;2252.80;;;;;;5071086;28;20174;-71
2022/02/09 07:34:11;;;;;;;19.42;10.85;;;180.00;2252.80;;;;;;5072597;28;20380;-71
2022/02/09 07:36:38;;;;;;;14.98;9.05;;;180.00;2252.80;;;;;;5072926;28;20025;-70
2022/02/09 07:39:05;;;;;;;18.83;9.77;;;180.10;2252.80;;;;;;5060839;28;20097;-71
2022/02/09 07:41:31;;;;;;;14.27;7.25;;;180.10;2252.80;;;;;;5072394;28;20020;-71
2022/02/09 07:49:09;;;;;;;11.18;7.18;;;205.00;2252.80;;;;;;5072778;28;20028;-70
2022/02/09 07:51:42;;;;;;;6.63;5.35;;;205.00;2252.80;;;;;;5071780;28;20098;-70
2022/02/09 07:54:10;;;;;;;11.30;6.32;;;205.10;2252.80;;;;;;5065411;28;20029;-70
2022/02/09 07:56:40;;;;;;;11.07;7.18;;;205.10;2252.80;;;;;;5071708;28;20020;-70
2022/02/09 07:59:08;;;;;;;11.20;6.50;;;205.20;2252.80;;;;;;5070280;28;20495;-70
2022/02/09 08:01:34;;;;;;;9.77;5.72;;;205.30;2252.80;;;;;;5071680;28;20082;-70
2022/02/09 08:04:00;;;;;;;8.82;6.07;;;205.30;2252.80;;;;;;5071789;28;20016;-70
2022/02/09 08:06:26;;;;;;;9.82;6.35;;;205.40;2252.80;;;;;;5070162;28;20356;-70
2022/02/09 08:09:01;;;;;;;10.57;7.38;;;205.40;2252.80;;;;;;5068559;28;20060;-71
2022/02/09 08:28:33;;;;;;;10.20;6.63;;;230.90;2252.80;;;;;;5047515;28;20502;-72
2022/02/09 08:31:34;;;;;;;12.10;6.85;;;231.10;2252.80;;;;;;5048559;28;20041;-71
2022/02/09 08:33:57;;;;;;;11.77;7.03;;;231.30;2252.80;;;;;;5047315;28;20045;-71
2022/02/09 08:36:23;;;;;;;10.07;6.22;;;256.20;2252.80;;;;;;5048080;28;20369;-71
2022/02/09 08:38:51;;;;;;;10.65;6.25;;;256.30;2252.80;;;;;;5047952;28;20122;-71
2022/02/09 08:41:17;;;;;;;12.18;7.25;;;256.40;2252.80;;;;;;5047815;28;20484;-70
2022/02/09 08:43:43;;;;;;;10.77;6.03;;;256.30;2252.80;;;;;;5048250;28;20075;-71
2022/02/09 08:46:09;;;;;;;14.35;6.97;;;256.40;2252.80;;;;;;5046896;28;20033;-70
2022/02/09 08:48:35;;;;;;;14.25;5.65;;;256.40;2252.80;;;;;;5048480;28;20071;-71
2022/02/09 08:51:01;;;;;;;11.85;7.63;;;256.90;2252.80;;;;;;5061037;28;20788;-71
2022/02/09 08:53:28;;;;;;;16.20;8.30;;;281.70;2278.40;;;;;;5069137;28;20024;-70
2022/02/09 08:55:53;;;;;;;14.10;7.25;;;282.30;2278.40;;;;;;5067755;28;20024;-71
2022/02/09 08:58:21;;;;;;;12.77;6.93;;;307.20;2304.00;;;;;;5069913;28;20028;-72
2022/02/09 09:00:48;;;;;;;10.48;6.93;;;307.50;2304.00;;;;;;5081024;28;20383;-71
2022/02/09 09:03:25;;;;;;;8.77;5.78;;;307.40;2304.00;;;;;;5069918;28;20459;-71
2022/02/09 09:05:50;;;;;;;8.45;6.30;;;282.40;2278.40;;;;;;5067050;28;20052;-71
2022/02/09 09:08:59;;;;;;;15.60;8.00;;;282.20;2278.40;;;;;;5069405;28;20361;-71
2022/02/09 10:04:13;;;;;;;26.17;8.48;;;384.20;2329.60;;;;;;5026447;28;20104;-71
2022/02/09 10:34:16;;;;;;;8.50;5.45;;;333.20;2329.60;;;;;;4989612;28;20041;-71
2022/02/09 10:36:55;;;;;;;8.10;4.35;;;333.00;2329.60;;;;;;5006593;28;20038;-71
2022/02/09 10:39:33;;;;;;;22.20;9.98;;;333.00;2329.60;;;;;;5004418;28;20385;-72
2022/02/09 10:42:21;;;;;;;13.70;8.07;;;332.80;2329.60;;;;;;5002398;28;20030;-72
2022/02/09 10:45:02;;;;;;;10.68;6.55;;;332.80;2329.60;;;;;;5006892;28;20184;-71
2022/02/09 10:47:31;;;;;;;14.05;6.35;;;333.00;2329.60;;;;;;5007418;28;20121;-71
2022/02/09 10:50:25;;;;;;;20.83;6.95;;;333.10;2329.60;;;;;;5009251;28;20044;-71
2022/02/09 10:52:52;;;;;;;9.75;5.55;;;333.30;2329.60;;;;;;5005503;28;20535;-72
2022/02/09 10:55:44;;;;;;;14.20;6.80;;;333.30;2329.60;;;;;;5006821;28;20037;-71
2022/02/09 10:58:15;;;;;;;12.45;6.82;;;333.50;2329.60;;;;;;5016237;28;20054;-71
2022/02/09 11:00:46;;;;;;;9.20;6.38;;;333.50;2329.60;;;;;;5011742;28;20120;-71
2022/02/09 11:03:16;;;;;;;10.73;7.30;;;333.50;2329.60;;;;;;5059082;28;20041;-71
2022/02/09 11:05:47;;;;;;;12.25;6.78;;;333.30;2329.60;;;;;;5072628;28;20020;-71
2022/02/09 11:08:14;;;;;;;11.07;6.55;;;333.30;2329.60;;;;;;5068321;28;20083;-71
2022/02/09 11:10:39;;;;;;;12.77;7.15;;;333.50;2329.60;;;;;;5072790;28;20021;-71
2022/02/09 11:13:09;;;;;;;14.52;7.75;;;358.50;2329.60;;;;;;5071741;28;20025;-71
2022/02/09 11:15:40;;;;;;;17.75;8.75;;;384.20;2329.60;;;;;;5072056;28;20064;-72
2022/02/09 11:18:10;;;;;;;13.85;7.50;;;409.80;2355.20;;;;;;5068489;28;20104;-72
2022/02/09 11:20:59;;;;;;;14.52;7.60;;;410.40;2355.20;;;;;;5071890;28;20395;-72
2022/02/09 11:23:41;;;;;;;36.97;8.93;;;460.80;2150.40;;;;;;5082217;28;20074;-72
2022/02/09 11:26:48;;;;;;;10.77;6.60;;;435.90;2176.00;;;;;;5074724;28;20140;-72
2022/02/09 11:34:52;;;;;;;9.32;5.80;;;461.50;1920.00;;;;;;5079590;28;20031;-72
2022/02/09 11:37:31;;;;;;;7.97;5.97;;;486.90;1817.60;;;;;;5061595;28;20029;-72
2022/02/09 11:40:01;;;;;;;10.23;7.05;;;486.60;1792.00;;;;;;5070082;28;20021;-72
2022/02/09 11:42:39;;;;;;;14.50;7.45;;;487.30;1740.80;;;;;;5069638;28;20033;-72
2022/02/09 11:45:42;;;;;;;10.60;6.47;;;487.10;1740.80;;;;;;5077374;28;20407;-72
2022/02/09 11:51:12;;;;;;;12.85;7.20;;;410.50;2227.20;;;;;;5071847;28;20383;-73
2022/02/09 12:11:33;;;;;;;11.20;6.43;;;461.30;1996.80;;;;;;5007943;28;20116;-73
2022/02/09 12:14:03;;;;;;;13.00;6.57;;;486.40;1868.80;;;;;;5008785;28;20042;-73
2022/02/09 12:16:45;;;;;;;12.52;5.88;;;512.10;1715.20;;;;;;5004951;28;20038;-72
2022/02/09 12:19:24;;;;;;;12.38;7.10;;;487.00;1766.40;;;;;;5005987;28;20117;-72
2022/02/09 12:24:41;;;;;;;14.35;7.72;;;512.20;1689.60;;;;;;4967067;28;20046;-73
2022/02/09 12:27:15;;;;;;;18.17;7.60;;;512.60;1689.60;;;;;;4966583;28;20034;-72
2022/02/09 12:29:46;;;;;;;31.40;9.95;;;512.60;1689.60;;;;;;4967117;28;20031;-72
2022/02/09 12:32:15;;;;;;;15.40;7.28;;;537.90;1638.40;;;;;;4952319;28;20039;-72
2022/02/09 12:35:00;;;;;;;10.63;6.30;;;538.30;1561.60;;;;;;4987128;28;20030;-72
2022/02/09 12:37:32;;;;;;;10.80;6.32;;;563.30;1536.00;;;;;;4989655;28;20031;-80
2022/02/09 12:40:01;;;;;;;7.55;5.55;;;512.80;1561.60;;;;;;4988016;28;20086;-72
2022/02/09 12:42:32;;;;;;;7.38;5.50;;;487.30;1612.80;;;;;;4987014;28;20052;-72
2022/02/09 12:45:03;;;;;;;8.13;5.20;;;486.90;1689.60;;;;;;4981921;28;20405;-71
2022/02/09 12:47:32;;;;;;;13.10;6.55;;;487.00;1689.60;;;;;;4987624;28;20042;-70
2022/02/09 12:50:00;;;;;;;8.15;5.85;;;487.30;1664.00;;;;;;4970498;28;20101;-71
2022/02/09 12:52:30;;;;;;;10.90;6.25;;;512.20;1638.40;;;;;;4962299;28;20026;-70
2022/02/09 12:55:05;;;;;;;15.95;11.00;;;512.50;1638.40;;;;;;4987358;28;20042;-71
2022/02/09 12:57:52;;;;;;;21.73;8.90;;;512.80;1587.20;;;;;;4988443;28;20033;-71
2022/02/09 13:00:34;;;;;;;7.50;5.10;;;512.70;1561.60;;;;;;4986752;28;20026;-72
2022/02/09 13:03:06;;;;;;;7.43;4.70;;;512.20;1612.80;;;;;;5069227;28;20589;-70
2022/02/09 13:05:40;;;;;;;9.20;4.97;;;486.60;1689.60;;;;;;5068001;28;20395;-71
2022/02/09 13:08:06;;;;;;;8.63;5.88;;;461.10;1792.00;;;;;;5069334;28;20028;-70
2022/02/09 13:10:35;;;;;;;12.57;5.97;;;435.20;2048.00;;;;;;5068589;28;20032;-70
2022/02/09 13:13:19;;;;;;;11.68;6.32;;;410.00;2355.20;;;;;;5067801;28;20060;-70
2022/02/09 13:15:54;;;;;;;19.88;8.13;;;384.70;2329.60;;;;;;5060614;28;20095;-71
2022/02/09 14:18:28;;;;;;;23.15;11.98;;;409.80;2355.20;;;;;;4891074;29;20125;-72
2022/02/09 14:52:47;;;;;;;12.57;9.52;;;358.90;2329.60;;;;;;4943768;29;20031;-71
2022/02/09 14:58:09;;;;;;;13.93;8.20;;;358.60;2329.60;;;;;;4940659;29;20028;-71
2022/02/09 15:00:47;;;;;;;18.30;10.02;;;358.70;2329.60;;;;;;4999692;28;20503;-71
2022/02/09 15:03:27;;;;;;;16.73;9.68;;;358.70;2329.60;;;;;;5013676;28;20029;-71
2022/02/09 15:08:32;;;;;;;16.95;8.55;;;358.60;2329.60;;;;;;5028450;28;20029;-72
2022/02/09 15:11:17;;;;;;;21.00;11.05;;;358.50;2329.60;;;;;;5030362;28;20033;-72
2022/02/09 15:14:03;;;;;;;24.02;13.65;;;358.50;2329.60;;;;;;5030274;28;20024;-72
2022/02/09 15:16:34;;;;;;;24.17;14.85;;;358.40;2329.60;;;;;;5028506;28;20455;-71
2022/02/09 15:24:18;;;;;;;23.25;14.88;;;333.60;2329.60;;;;;;5046576;28;20047;-72
2022/02/09 15:26:46;;;;;;;39.30;17.85;;;333.50;2329.60;;;;;;5072484;28;20388;-71
2022/02/09 15:29:15;;;;;;;32.35;17.73;;;333.50;2329.60;;;;;;5070052;28;20090;-72
2022/02/09 15:31:55;;;;;;;36.33;18.65;;;333.50;2329.60;;;;;;5070171;28;20055;-71
2022/02/09 15:34:34;;;;;;;32.42;15.27;;;333.30;2329.60;;;;;;5070656;28;20103;-72
2022/02/09 15:39:45;;;;;;;39.30;21.13;;;333.10;2329.60;;;;;;5070408;28;20028;-71
2022/02/09 15:59:23;;;;;;;107.25;61.85;;;307.60;2304.00;;;;;;4970236;28;20039;-71
2022/02/09 16:09:43;;;;;;;82.80;48.90;;;282.40;2278.40;;;;;;4971007;28;20015;-72
2022/02/09 16:18:43;;;;;;;79.60;49.13;;;282.20;2278.40;;;;;;4971509;28;20066;-72
2022/02/09 16:23:10;;;;;;;128.30;80.20;;;282.00;2278.40;;;;;;4971004;28;20089;-72
2022/02/09 16:44:37;;;;;;;242.98;109.85;;;281.60;2278.40;;;;;;5076313;28;20082;-72
2022/02/09 16:47:05;;;;;;;277.42;129.25;;;281.60;2278.40;;;;;;5074148;28;20027;-71
2022/02/09 16:49:38;;;;;;;230.82;116.22;;;256.90;2252.80;;;;;;5080404;28;20052;-72
2022/02/09 16:52:18;;;;;;;169.70;98.15;;;256.90;2252.80;;;;;;5077695;28;20111;-71
2022/02/09 17:08:40;;;;;;;93.47;57.40;;;256.80;2252.80;;;;;;5072438;28;20104;-72
2022/02/09 17:19:23;;;;;;;67.65;47.45;;;256.50;2252.80;;;;;;4984973;28;20069;-72
2022/02/09 17:21:49;;;;;;;84.32;46.33;;;256.50;2252.80;;;;;;4988609;28;20031;-72
2022/02/09 17:24:15;;;;;;;83.50;49.63;;;256.40;2252.80;;;;;;4986658;28;20042;-72
2022/02/09 17:26:41;;;;;;;66.65;44.03;;;256.40;2252.80;;;;;;4990509;28;20030;-72
2022/02/09 17:29:07;;;;;;;89.47;55.28;;;256.40;2252.80;;;;;;4988518;28;20057;-72
2022/02/09 17:53:25;;;;;;;51.65;32.58;;;256.00;2252.80;;;;;;5069695;28;20518;-72
2022/02/09 17:56:10;;;;;;;33.67;24.35;;;231.30;2252.80;;;;;;5068809;28;20033;-72
2022/02/09 17:58:44;;;;;;;27.58;21.30;;;231.30;2252.80;;;;;;5064368;28;20104;-72
2022/02/09 18:01:10;;;;;;;24.67;18.88;;;231.20;2252.80;;;;;;5071621;28;20031;-72
2022/02/09 18:03:36;;;;;;;27.70;18.80;;;231.20;2252.80;;;;;;5073312;28;20021;-72
2022/02/09 18:08:56;;;;;;;29.75;21.05;;;231.20;2252.80;;;;;;5071005;28;20031;-72
2022/02/09 18:25:41;;;;;;;80.22;50.95;;;231.00;2252.80;;;;;;5073045;28;20052;-72
2022/02/09 18:33:36;;;;;;;52.85;30.92;;;230.90;2252.80;;;;;;5029133;28;20080;-72
2022/02/09 18:58:14;;;;;;;80.55;44.05;;;230.50;2252.80;;;;;;5030681;28;20031;-71
2022/02/09 19:05:43;;;;;;;74.22;40.88;;;230.40;2252.80;;;;;;5030746;28;20033;-72
2022/02/09 19:08:19;;;;;;;67.55;38.20;;;230.50;2252.80;;;;;;5033901;28;20033;-72
2022/02/09 19:16:43;;;;;;;79.57;45.30;;;230.50;2252.80;;;;;;5068154;28;20044;-72
2022/02/09 19:30:04;;;;;;;49.90;31.30;;;230.40;2252.80;;;;;;5070665;28;20115;-71
2022/02/09 19:45:54;;;;;;;33.58;23.48;;;230.40;2252.80;;;;;;5072420;28;20040;-71
2022/02/09 19:48:27;;;;;;;31.95;22.98;;;205.70;2252.80;;;;;;5070163;28;20035;-72
2022/02/09 19:51:20;;;;;;;35.65;24.30;;;205.70;2252.80;;;;;;5068198;28;20017;-72
2022/02/09 19:56:19;;;;;;;32.60;20.63;;;205.70;2252.80;;;;;;5071535;28;20086;-71
2022/02/09 20:01:21;;;;;;;31.25;19.70;;;205.70;2252.80;;;;;;5071366;28;20525;-72
2022/02/09 20:03:48;;;;;;;29.60;17.60;;;205.60;2252.80;;;;;;5067556;28;20025;-71
2022/02/09 20:06:14;;;;;;;28.92;19.17;;;205.50;2252.80;;;;;;5068478;28;20024;-71
2022/02/09 20:08:40;;;;;;;22.13;16.10;;;205.60;2252.80;;;;;;5071510;28;20025;-71
2022/02/09 20:11:10;;;;;;;22.90;18.15;;;205.50;2252.80;;;;;;5070799;28;20039;-72
2022/02/09 20:13:36;;;;;;;29.15;19.02;;;205.50;2252.80;;;;;;5070466;28;20376;-72
2022/02/09 20:16:03;;;;;;;28.52;18.98;;;205.50;2252.80;;;;;;5070885;28;20032;-72
2022/02/09 20:18:32;;;;;;;22.65;16.33;;;205.40;2252.80;;;;;;5067387;28;20069;-72
2022/02/09 20:20:59;;;;;;;21.52;14.93;;;205.60;2252.80;;;;;;5068492;28;20040;-72
2022/02/09 20:23:26;;;;;;;22.83;15.05;;;205.40;2252.80;;;;;;5070174;28;20021;-72
2022/02/09 20:25:52;;;;;;;23.20;16.10;;;205.40;2252.80;;;;;;5067109;28;20562;-72
2022/02/09 20:28:18;;;;;;;26.17;18.65;;;205.40;2252.80;;;;;;5068235;28;20112;-72
2022/02/09 20:30:50;;;;;;;22.58;17.23;;;205.40;2252.80;;;;;;5069730;28;20039;-72
2022/02/09 20:33:20;;;;;;;20.13;15.82;;;205.40;2252.80;;;;;;5069520;28;20391;-72
2022/02/09 20:35:47;;;;;;;28.25;17.30;;;205.40;2252.80;;;;;;5070027;28;20012;-71
2022/02/09 20:38:18;;;;;;;24.20;18.15;;;205.40;2252.80;;;;;;5066266;28;20136;-71
2022/02/09 20:43:14;;;;;;;26.38;17.70;;;205.40;2252.80;;;;;;5070840;28;20032;-72
2022/02/09 20:45:50;;;;;;;30.85;19.50;;;205.30;2252.80;;;;;;5066576;28;20150;-71
2022/02/09 20:48:17;;;;;;;27.95;19.35;;;205.30;2252.80;;;;;;5067979;28;20031;-71
2022/02/09 20:50:44;;;;;;;28.13;19.05;;;205.30;2252.80;;;;;;5066652;28;20028;-72
2022/02/09 20:53:10;;;;;;;26.30;18.38;;;205.20;2252.80;;;;;;5071808;28;20024;-71
2022/02/09 20:55:36;;;;;;;27.67;18.33;;;205.20;2252.80;;;;;;5071742;28;20035;-71
2022/02/09 20:58:04;;;;;;;27.13;17.50;;;205.20;2252.80;;;;;;5071095;28;20036;-71
2022/02/09 21:00:45;;;;;;;28.48;19.55;;;205.20;2252.80;;;;;;5071438;28;20028;-71
2022/02/09 21:03:40;;;;;;;26.60;19.17;;;205.10;2252.80;;;;;;5068250;28;20044;-71
2022/02/09 21:09:00;;;;;;;26.25;17.55;;;205.10;2252.80;;;;;;5071808;28;20031;-71
2022/02/09 21:33:00;;;;;;;29.50;20.30;;;204.90;2252.80;;;;;;5073385;28;20058;-72
2022/02/09 21:56:41;;;;;;;38.60;25.13;;;180.00;2252.80;;;;;;5066192;28;20017;-72
2022/02/09 22:20:36;;;;;;;39.22;28.63;;;180.00;2252.80;;;;;;5071564;28;20032;-72
2022/02/09 22:26:29;;;;;;;49.92;37.63;;;179.90;2252.80;;;;;;5071716;28;20132;-72
2022/02/09 22:28:58;;;;;;;72.85;48.05;;;179.90;2252.80;;;;;;5071482;28;20428;-72
2022/02/09 22:50:59;;;;;;;50.05;35.80;;;179.50;2150.40;;;;;;4990002;28;20104;-72
2022/02/09 22:56:10;;;;;;;48.03;33.92;;;179.50;2252.80;;;;;;4992870;28;20155;-72
2022/02/09 22:58:35;;;;;;;53.67;38.50;;;179.40;2201.60;;;;;;4990734;28;20043;-71
2022/02/09 23:06:44;;;;;;;53.00;37.25;;;179.30;2227.20;;;;;;4991328;28;20409;-71
2022/02/09 23:22:57;;;;;;;46.67;34.05;;;179.20;2252.80;;;;;;5073201;28;20059;-70
